Map

Track Data

SID SEASON NUMBER BASIN SUBBASIN NAME ISO_TIME NATURE LAT LON WMO_WIND WMO_PRES WMO_AGENCY TRACK_TYPE DIST2LAND LANDFALL IFLAG USA_AGENCY USA_ATCF_ID USA_LAT USA_LON USA_RECORD USA_STATUS USA_WIND USA_PRES USA_SSHS USA_R34_NE USA_R34_SE USA_R34_SW USA_R34_NW USA_R50_NE USA_R50_SE USA_R50_SW USA_R50_NW USA_R64_NE USA_R64_SE USA_R64_SW USA_R64_NW USA_POCI USA_ROCI USA_RMW USA_EYE TOKYO_LAT TOKYO_LON TOKYO_GRADE TOKYO_WIND TOKYO_PRES TOKYO_R50_DIR TOKYO_R50_LONG TOKYO_R50_SHORT TOKYO_R30_DIR TOKYO_R30_LONG TOKYO_R30_SHORT TOKYO_LAND CMA_LAT CMA_LON CMA_CAT CMA_WIND CMA_PRES HKO_LAT HKO_LON HKO_CAT HKO_WIND HKO_PRES NEWDELHI_LAT NEWDELHI_LON NEWDELHI_GRADE NEWDELHI_WIND NEWDELHI_PRES NEWDELHI_CI NEWDELHI_DP NEWDELHI_POCI REUNION_LAT REUNION_LON REUNION_TYPE REUNION_WIND REUNION_PRES REUNION_TNUM REUNION_CI REUNION_RMW REUNION_R34_NE REUNION_R34_SE REUNION_R34_SW REUNION_R34_NW REUNION_R50_NE REUNION_R50_SE REUNION_R50_SW REUNION_R50_NW REUNION_R64_NE REUNION_R64_SE REUNION_R64_SW REUNION_R64_NW BOM_LAT BOM_LON BOM_TYPE BOM_WIND BOM_PRES BOM_TNUM BOM_CI BOM_RMW BOM_R34_NE BOM_R34_SE BOM_R34_SW BOM_R34_NW BOM_R50_NE BOM_R50_SE BOM_R50_SW BOM_R50_NW BOM_R64_NE BOM_R64_SE BOM_R64_SW BOM_R64_NW BOM_ROCI BOM_POCI BOM_EYE BOM_POS_METHOD BOM_PRES_METHOD NADI_LAT NADI_LON NADI_CAT NADI_WIND NADI_PRES WELLINGTON_LAT WELLINGTON_LON WELLINGTON_WIND WELLINGTON_PRES DS824_LAT DS824_LON DS824_STAGE DS824_WIND DS824_PRES TD9636_LAT TD9636_LON TD9636_STAGE TD9636_WIND TD9636_PRES TD9635_LAT TD9635_LON TD9635_WIND TD9635_PRES TD9635_ROCI NEUMANN_LAT NEUMANN_LON NEUMANN_CLASS NEUMANN_WIND NEUMANN_PRES MLC_LAT MLC_LON MLC_CLASS MLC_WIND MLC_PRES USA_GUST BOM_GUST BOM_GUST_PER REUNION_GUST REUNION_GUST_PER USA_SEAHGT USA_SEARAD_NE USA_SEARAD_SE USA_SEARAD_SW USA_SEARAD_NW STORM_SPEED STORM_DIR
1997176N16252 1997 43 EP MM CARLOS 1997-06-25 06:00:00 TS 15.6000 -107.800 25 1006 hurdat_epa main 513 501 O_____________ hurdat_epa EP041997 15.6000 -107.800 TD 25 1006 -1 10 317
1997176N16252 1997 43 EP MM CARLOS 1997-06-25 09:00:00 TS 15.9476 -108.142 main 508 507 P_____________ EP041997 15.9476 -108.142 TD 27 1005 -1 10 316
1997176N16252 1997 43 EP MM CARLOS 1997-06-25 12:00:00 TS 16.3000 -108.500 30 1004 hurdat_epa main 507 507 O_____________ hurdat_epa EP041997 16.3000 -108.500 TD 30 1004 -1 10 315
1997176N16252 1997 43 EP MM CARLOS 1997-06-25 15:00:00 TS 16.6574 -108.885 main 507 507 P_____________ EP041997 16.6574 -108.885 TD 32 1003 -1 10 312
1997176N16252 1997 43 EP MM CARLOS 1997-06-25 18:00:00 TS 17.0000 -109.300 35 1002 hurdat_epa main 519 519 O_____________ hurdat_epa EP041997 17.0000 -109.300 TS 35 1002 0 10 308
1997176N16252 1997 43 EP MM CARLOS 1997-06-25 21:00:00 TS 17.3074 -109.743 main 535 535 P_____________ EP041997 17.3074 -109.743 TS 37 1000 0 11 305
1997176N16252 1997 43 EP MM CARLOS 1997-06-26 00:00:00 TS 17.6000 -110.200 40 999 hurdat_epa main 562 561 O_____________ hurdat_epa EP041997 17.6000 -110.200 TS 40 999 0 11 306
1997176N16252 1997 43 EP MM CARLOS 1997-06-26 03:00:00 TS 17.9223 -110.642 main 562 535 P_____________ EP041997 17.9223 -110.643 TS 42 997 0 10 305
1997176N16252 1997 43 EP MM CARLOS 1997-06-26 06:00:00 TS 18.2000 -111.100 45 996 hurdat_epa main 537 526 O_____________ hurdat_epa EP041997 18.2000 -111.100 TS 45 996 0 10 296
1997176N16252 1997 43 EP MM CARLOS 1997-06-26 09:00:00 TS 18.3724 -111.593 main 530 530 P_____________ EP041997 18.3724 -111.593 TS 45 997 0 10 288
1997176N16252 1997 43 EP MM CARLOS 1997-06-26 12:00:00 TS 18.5000 -112.100 45 999 hurdat_epa main 538 537 O_____________ hurdat_epa EP041997 18.5000 -112.100 TS 45 999 0 10 287
1997176N16252 1997 43 EP MM CARLOS 1997-06-26 15:00:00 TS 18.6573 -112.593 main 541 541 P_____________ EP041997 18.6573 -112.593 TS 42 1000 0 10 288
1997176N16252 1997 43 EP MM CARLOS 1997-06-26 18:00:00 TS 18.8000 -113.100 40 1001 hurdat_epa main 560 560 O_____________ hurdat_epa EP041997 18.8000 -113.100 TS 40 1001 0 10 284
1997176N16252 1997 43 EP MM CARLOS 1997-06-26 21:00:00 TS 18.9075 -113.650 main 589 589 P_____________ EP041997 18.9075 -113.650 TS 37 1002 0 11 281
1997176N16252 1997 43 EP MM CARLOS 1997-06-27 00:00:00 TS 19.0000 -114.200 35 1003 hurdat_epa main 616 616 O_____________ hurdat_epa EP041997 19.0000 -114.200 TS 35 1003 0 10 281
1997176N16252 1997 43 EP MM CARLOS 1997-06-27 03:00:00 TS 19.0998 -114.708 main 646 646 P_____________ EP041997 19.0998 -114.708 TS 32 1004 -1 10 282
1997176N16252 1997 43 EP MM CARLOS 1997-06-27 06:00:00 TS 19.2000 -115.200 30 1005 hurdat_epa main 679 679 O_____________ hurdat_epa EP041997 19.2000 -115.200 TD 30 1005 -1 10 282
1997176N16252 1997 43 EP MM CARLOS 1997-06-27 09:00:00 TS 19.3074 -115.707 main 706 706 P_____________ EP041997 19.3074 -115.707 TD 30 1006 -1 10 282
1997176N16252 1997 43 EP MM CARLOS 1997-06-27 12:00:00 TS 19.4000 -116.200 30 1007 hurdat_epa main 727 727 O_____________ hurdat_epa EP041997 19.4000 -116.200 TD 30 1007 -1 9 280
1997176N16252 1997 43 EP MM CARLOS 1997-06-27 15:00:00 TS 19.4648 -116.658 main 749 749 P_____________ EP041997 19.4648 -116.658 TD 30 1007 -1 9 277
1997176N16252 1997 43 EP MM CARLOS 1997-06-27 18:00:00 TS 19.5000 -117.100 30 1008 hurdat_epa main 776 776 O_____________ hurdat_epa EP041997 19.5000 -117.100 TD 30 1008 -1 8 273
1997176N16252 1997 43 EP MM CARLOS 1997-06-27 21:00:00 TS 19.5078 -117.548 main 804 804 P_____________ EP041997 19.5078 -117.548 TD 27 1008 -1 8 270
1997176N16252 1997 43 EP MM CARLOS 1997-06-28 00:00:00 TS 19.5000 -118.000 25 1009 hurdat_epa main 840 O_____________ hurdat_epa EP041997 19.5000 -118.000 TD 25 1009 -1 9 269

About IBTrACS Database

This database is a web-friendly format of International Best Track Archive for Climate Stewardship (IBTrACS), a global best track data archive curated by NOAA dating back to 1842.

Updated: 2021-12-08